sensor_id;sensor_type;location;lat;lon;timestamp;temperature;humidity
21823;DHT22;11074;48.596;9.238;2022-11-20T00:01:14;7.80;99.90
21823;DHT22;11074;48.596;9.238;2022-11-20T00:03:42;7.80;99.90
21823;DHT22;11074;48.596;9.238;2022-11-20T00:06:14;7.80;99.90
21823;DHT22;11074;48.596;9.238;2022-11-20T00:08:42;7.80;99.90
21823;DHT22;11074;48.596;9.238;2022-11-20T00:11:13;7.70;99.90
21823;DHT22;11074;48.596;9.238;2022-11-20T00:13:40;7.70;99.90
21823;DHT22;11074;48.596;9.238;2022-11-20T00:16:08;7.70;99.90
21823;DHT22;11074;48.596;9.238;2022-11-20T00:18:36;7.70;99.90
21823;DHT22;11074;48.596;9.238;2022-11-20T00:21:15;7.60;99.90
21823;DHT22;11074;48.596;9.238;2022-11-20T00:23:50;7.60;99.90
21823;DHT22;11074;48.596;9.238;2022-11-20T00:26:18;7.60;99.90
21823;DHT22;11074;48.596;9.238;2022-11-20T00:28:50;7.50;99.90
21823;DHT22;11074;48.596;9.238;2022-11-20T00:31:21;7.40;99.90
21823;DHT22;11074;48.596;9.238;2022-11-20T00:33:47;7.30;99.90
21823;DHT22;11074;48.596;9.238;2022-11-20T00:36:15;7.20;99.90
21823;DHT22;11074;48.596;9.238;2022-11-20T00:38:46;7.10;99.90
21823;DHT22;11074;48.596;9.238;2022-11-20T00:41:15;7.10;99.90
21823;DHT22;11074;48.596;9.238;2022-11-20T00:43:41;7.20;99.90
21823;DHT22;11074;48.596;9.238;2022-11-20T00:46:09;7.10;99.90
21823;DHT22;11074;48.596;9.238;2022-11-20T00:48:39;7.10;99.90
21823;DHT22;11074;48.596;9.238;2022-11-20T00:51:05;7.20;99.90
21823;DHT22;11074;48.596;9.238;2022-11-20T00:53:32;7.20;99.90
21823;DHT22;11074;48.596;9.238;2022-11-20T00:56:00;7.20;99.90
21823;DHT22;11074;48.596;9.238;2022-11-20T00:58:33;7.30;99.90
21823;DHT22;11074;48.596;9.238;2022-11-20T01:01:23;7.20;99.90
21823;DHT22;11074;48.596;9.238;2022-11-20T01:03:52;7.30;99.90
21823;DHT22;11074;48.596;9.238;2022-11-20T01:06:24;7.20;99.90
21823;DHT22;11074;48.596;9.238;2022-11-20T01:08:54;7.20;99.90
21823;DHT22;11074;48.596;9.238;2022-11-20T01:11:30;7.20;99.90
21823;DHT22;11074;48.596;9.238;2022-11-20T01:13:59;7.20;99.90
21823;DHT22;11074;48.596;9.238;2022-11-20T01:16:28;7.10;99.90
21823;DHT22;11074;48.596;9.238;2022-11-20T01:18:58;7.10;99.90
21823;DHT22;11074;48.596;9.238;2022-11-20T01:21:34;7.10;99.90
21823;DHT22;11074;48.596;9.238;2022-11-20T01:24:06;7.00;99.90
21823;DHT22;11074;48.596;9.238;2022-11-20T01:26:37;7.00;99.90
21823;DHT22;11074;48.596;9.238;2022-11-20T01:29:04;7.00;99.90
21823;DHT22;11074;48.596;9.238;2022-11-20T01:31:36;7.00;99.90
21823;DHT22;11074;48.596;9.238;2022-11-20T01:34:04;6.90;99.90
21823;DHT22;11074;48.596;9.238;2022-11-20T01:36:33;6.90;99.90
21823;DHT22;11074;48.596;9.238;2022-11-20T01:39:04;6.80;99.90
21823;DHT22;11074;48.596;9.238;2022-11-20T01:41:33;6.80;99.90
21823;DHT22;11074;48.596;9.238;2022-11-20T01:44:20;6.80;99.90
21823;DHT22;11074;48.596;9.238;2022-11-20T01:47:02;6.80;99.90
21823;DHT22;11074;48.596;9.238;2022-11-20T01:49:42;6.70;99.90
21823;DHT22;11074;48.596;9.238;2022-11-20T01:55:12;6.70;99.90
21823;DHT22;11074;48.596;9.238;2022-11-20T01:57:43;6.70;99.90
21823;DHT22;11074;48.596;9.238;2022-11-20T02:00:12;6.70;99.90
21823;DHT22;11074;48.596;9.238;2022-11-20T02:02:43;6.70;99.90
21823;DHT22;11074;48.596;9.238;2022-11-20T02:05:40;6.60;99.90
21823;DHT22;11074;48.596;9.238;2022-11-20T02:08:12;6.60;99.90
21823;DHT22;11074;48.596;9.238;2022-11-20T02:10:38;6.60;99.90
21823;DHT22;11074;48.596;9.238;2022-11-20T02:13:04;6.60;99.90
21823;DHT22;11074;48.596;9.238;2022-11-20T02:15:48;6.50;99.90
21823;DHT22;11074;48.596;9.238;2022-11-20T02:18:16;6.50;99.90
21823;DHT22;11074;48.596;9.238;2022-11-20T02:20:46;6.50;99.90
21823;DHT22;11074;48.596;9.238;2022-11-20T02:23:31;6.40;99.90
21823;DHT22;11074;48.596;9.238;2022-11-20T02:26:06;6.40;99.90
21823;DHT22;11074;48.596;9.238;2022-11-20T02:28:36;6.40;99.90
21823;DHT22;11074;48.596;9.238;2022-11-20T02:31:01;6.40;99.90
21823;DHT22;11074;48.596;9.238;2022-11-20T02:33:27;6.40;99.90
21823;DHT22;11074;48.596;9.238;2022-11-20T02:35:53;6.40;99.90
21823;DHT22;11074;48.596;9.238;2022-11-20T02:38:19;6.40;99.90
21823;DHT22;11074;48.596;9.238;2022-11-20T02:40:45;6.40;99.90
21823;DHT22;11074;48.596;9.238;2022-11-20T02:43:11;6.30;99.90
21823;DHT22;11074;48.596;9.238;2022-11-20T02:45:37;6.30;99.90
21823;DHT22;11074;48.596;9.238;2022-11-20T02:48:03;6.30;99.90
21823;DHT22;11074;48.596;9.238;2022-11-20T02:50:31;6.30;99.90
21823;DHT22;11074;48.596;9.238;2022-11-20T02:52:56;6.30;99.90
21823;DHT22;11074;48.596;9.238;2022-11-20T02:55:22;6.30;99.90
21823;DHT22;11074;48.596;9.238;2022-11-20T02:57:48;6.30;99.90
21823;DHT22;11074;48.596;9.238;2022-11-20T03:00:14;6.30;99.90
21823;DHT22;11074;48.596;9.238;2022-11-20T03:02:40;6.30;99.90
21823;DHT22;11074;48.596;9.238;2022-11-20T03:05:06;6.30;99.90
21823;DHT22;11074;48.596;9.238;2022-11-20T03:07:31;6.30;99.90
21823;DHT22;11074;48.596;9.238;2022-11-20T03:09:57;6.30;99.90
21823;DHT22;11074;48.596;9.238;2022-11-20T03:12:23;6.20;99.90
21823;DHT22;11074;48.596;9.238;2022-11-20T03:14:48;6.10;99.90
21823;DHT22;11074;48.596;9.238;2022-11-20T03:17:16;6.10;99.90
21823;DHT22;11074;48.596;9.238;2022-11-20T03:19:42;6.10;99.90
21823;DHT22;11074;48.596;9.238;2022-11-20T03:22:07;6.10;99.90
21823;DHT22;11074;48.596;9.238;2022-11-20T03:24:33;6.20;99.90
21823;DHT22;11074;48.596;9.238;2022-11-20T03:26:58;6.20;99.90
21823;DHT22;11074;48.596;9.238;2022-11-20T03:29:24;6.20;99.90
21823;DHT22;11074;48.596;9.238;2022-11-20T03:31:50;6.20;99.90
21823;DHT22;11074;48.596;9.238;2022-11-20T03:34:16;6.30;99.90
21823;DHT22;11074;48.596;9.238;2022-11-20T03:36:42;6.30;99.90
21823;DHT22;11074;48.596;9.238;2022-11-20T03:39:08;6.30;99.90
21823;DHT22;11074;48.596;9.238;2022-11-20T03:41:40;6.30;99.90
21823;DHT22;11074;48.596;9.238;2022-11-20T03:44:09;6.30;99.90
21823;DHT22;11074;48.596;9.238;2022-11-20T03:46:37;6.30;99.90
21823;DHT22;11074;48.596;9.238;2022-11-20T03:49:03;6.30;99.90
21823;DHT22;11074;48.596;9.238;2022-11-20T03:51:31;6.30;99.90
21823;DHT22;11074;48.596;9.238;2022-11-20T03:54:01;6.30;99.90
21823;DHT22;11074;48.596;9.238;2022-11-20T03:56:30;6.30;99.90
21823;DHT22;11074;48.596;9.238;2022-11-20T03:58:58;6.40;99.90
21823;DHT22;11074;48.596;9.238;2022-11-20T04:01:25;6.30;99.90
21823;DHT22;11074;48.596;9.238;2022-11-20T04:03:55;6.30;99.90
21823;DHT22;11074;48.596;9.238;2022-11-20T04:06:24;6.30;99.90
21823;DHT22;11074;48.596;9.238;2022-11-20T04:08:54;6.30;99.90
21823;DHT22;11074;48.596;9.238;2022-11-20T04:11:23;6.30;99.90
21823;DHT22;11074;48.596;9.238;2022-11-20T04:13:53;6.30;99.90
21823;DHT22;11074;48.596;9.238;2022-11-20T04:16:21;6.20;99.90
21823;DHT22;11074;48.596;9.238;2022-11-20T04:18:52;6.20;99.90
21823;DHT22;11074;48.596;9.238;2022-11-20T04:21:22;6.20;99.90
21823;DHT22;11074;48.596;9.238;2022-11-20T04:23:49;6.20;99.90
21823;DHT22;11074;48.596;9.238;2022-11-20T04:26:16;6.30;99.90
21823;DHT22;11074;48.596;9.238;2022-11-20T04:28:41;6.30;99.90
21823;DHT22;11074;48.596;9.238;2022-11-20T04:31:12;6.40;99.90
21823;DHT22;11074;48.596;9.238;2022-11-20T04:33:40;6.30;99.90
21823;DHT22;11074;48.596;9.238;2022-11-20T04:36:10;6.40;99.90
21823;DHT22;11074;48.596;9.238;2022-11-20T04:38:38;6.30;99.90
21823;DHT22;11074;48.596;9.238;2022-11-20T04:41:06;6.30;99.90
21823;DHT22;11074;48.596;9.238;2022-11-20T04:43:35;6.30;99.90
21823;DHT22;11074;48.596;9.238;2022-11-20T04:46:01;6.40;99.90
21823;DHT22;11074;48.596;9.238;2022-11-20T04:48:28;6.40;99.90
21823;DHT22;11074;48.596;9.238;2022-11-20T04:50:55;6.40;99.90
21823;DHT22;11074;48.596;9.238;2022-11-20T04:53:21;6.40;99.90
21823;DHT22;11074;48.596;9.238;2022-11-20T04:55:48;6.40;99.90
21823;DHT22;11074;48.596;9.238;2022-11-20T04:58:14;6.50;99.90
21823;DHT22;11074;48.596;9.238;2022-11-20T05:00:42;6.40;99.90
21823;DHT22;11074;48.596;9.238;2022-11-20T05:03:07;6.40;99.90
21823;DHT22;11074;48.596;9.238;2022-11-20T05:05:34;6.40;99.90
21823;DHT22;11074;48.596;9.238;2022-11-20T05:08:00;6.40;99.90
21823;DHT22;11074;48.596;9.238;2022-11-20T05:10:26;6.40;99.90
21823;DHT22;11074;48.596;9.238;2022-11-20T05:12:52;6.40;99.90
21823;DHT22;11074;48.596;9.238;2022-11-20T05:15:18;6.40;99.90
21823;DHT22;11074;48.596;9.238;2022-11-20T05:17:48;6.40;99.90
21823;DHT22;11074;48.596;9.238;2022-11-20T05:20:15;6.50;99.90
21823;DHT22;11074;48.596;9.238;2022-11-20T05:22:41;6.50;99.90
21823;DHT22;11074;48.596;9.238;2022-11-20T05:25:08;6.50;99.90
21823;DHT22;11074;48.596;9.238;2022-11-20T05:27:34;6.60;99.90
21823;DHT22;11074;48.596;9.238;2022-11-20T05:29:59;6.60;99.90
21823;DHT22;11074;48.596;9.238;2022-11-20T05:32:25;6.60;99.90
21823;DHT22;11074;48.596;9.238;2022-11-20T05:34:52;6.70;99.90
21823;DHT22;11074;48.596;9.238;2022-11-20T05:37:17;6.70;99.90
21823;DHT22;11074;48.596;9.238;2022-11-20T05:39:43;6.70;99.90
21823;DHT22;11074;48.596;9.238;2022-11-20T05:42:09;6.70;99.90
21823;DHT22;11074;48.596;9.238;2022-11-20T05:44:53;6.70;99.90
21823;DHT22;11074;48.596;9.238;2022-11-20T05:47:18;6.60;99.90
21823;DHT22;11074;48.596;9.238;2022-11-20T05:49:44;6.70;99.90
21823;DHT22;11074;48.596;9.238;2022-11-20T05:52:10;6.70;99.90
21823;DHT22;11074;48.596;9.238;2022-11-20T05:54:36;6.70;99.90
21823;DHT22;11074;48.596;9.238;2022-11-20T05:57:01;6.60;99.90
21823;DHT22;11074;48.596;9.238;2022-11-20T05:59:27;6.60;99.90
21823;DHT22;11074;48.596;9.238;2022-11-20T06:01:53;6.60;99.90
21823;DHT22;11074;48.596;9.238;2022-11-20T06:04:18;6.60;99.90
21823;DHT22;11074;48.596;9.238;2022-11-20T06:06:44;6.60;99.90
21823;DHT22;11074;48.596;9.238;2022-11-20T06:09:10;6.60;99.90
21823;DHT22;11074;48.596;9.238;2022-11-20T06:11:35;6.60;99.90
21823;DHT22;11074;48.596;9.238;2022-11-20T06:14:01;6.60;99.90
21823;DHT22;11074;48.596;9.238;2022-11-20T06:16:27;6.60;99.90
21823;DHT22;11074;48.596;9.238;2022-11-20T06:18:52;6.60;99.90
21823;DHT22;11074;48.596;9.238;2022-11-20T06:21:20;6.60;99.90
21823;DHT22;11074;48.596;9.238;2022-11-20T06:23:48;6.70;99.90
21823;DHT22;11074;48.596;9.238;2022-11-20T06:26:22;6.60;99.90
21823;DHT22;11074;48.596;9.238;2022-11-20T06:28:51;6.60;99.90
21823;DHT22;11074;48.596;9.238;2022-11-20T06:31:20;6.60;99.90
21823;DHT22;11074;48.596;9.238;2022-11-20T06:33:48;6.60;99.90
21823;DHT22;11074;48.596;9.238;2022-11-20T06:36:16;6.60;99.90
21823;DHT22;11074;48.596;9.238;2022-11-20T06:38:44;6.60;99.90
21823;DHT22;11074;48.596;9.238;2022-11-20T06:41:18;6.70;99.90
21823;DHT22;11074;48.596;9.238;2022-11-20T06:43:46;6.70;99.90
21823;DHT22;11074;48.596;9.238;2022-11-20T06:46:13;6.70;99.90
21823;DHT22;11074;48.596;9.238;2022-11-20T06:48:40;6.70;99.90
21823;DHT22;11074;48.596;9.238;2022-11-20T06:51:07;6.70;99.90
21823;DHT22;11074;48.596;9.238;2022-11-20T06:53:34;6.70;99.90
21823;DHT22;11074;48.596;9.238;2022-11-20T06:56:00;6.70;99.90
21823;DHT22;11074;48.596;9.238;2022-11-20T06:58:27;6.70;99.90
21823;DHT22;11074;48.596;9.238;2022-11-20T07:00:57;6.70;99.90
21823;DHT22;11074;48.596;9.238;2022-11-20T07:03:27;6.80;99.90
21823;DHT22;11074;48.596;9.238;2022-11-20T07:05:56;6.70;99.90
21823;DHT22;11074;48.596;9.238;2022-11-20T07:08:25;6.70;99.90
21823;DHT22;11074;48.596;9.238;2022-11-20T07:10:51;6.70;99.90
21823;DHT22;11074;48.596;9.238;2022-11-20T07:13:17;6.80;99.90
21823;DHT22;11074;48.596;9.238;2022-11-20T07:15:43;6.80;99.90
21823;DHT22;11074;48.596;9.238;2022-11-20T07:18:08;6.80;99.90
21823;DHT22;11074;48.596;9.238;2022-11-20T07:20:34;6.80;99.90
21823;DHT22;11074;48.596;9.238;2022-11-20T07:23:00;7.00;99.90
21823;DHT22;11074;48.596;9.238;2022-11-20T07:25:27;6.90;99.90
21823;DHT22;11074;48.596;9.238;2022-11-20T07:27:57;6.90;99.90
21823;DHT22;11074;48.596;9.238;2022-11-20T07:30:24;6.90;99.90
21823;DHT22;11074;48.596;9.238;2022-11-20T07:32:54;7.00;99.90
21823;DHT22;11074;48.596;9.238;2022-11-20T07:35:22;7.00;99.90
21823;DHT22;11074;48.596;9.238;2022-11-20T07:37:48;7.00;99.90
21823;DHT22;11074;48.596;9.238;2022-11-20T07:40:14;6.90;99.90
21823;DHT22;11074;48.596;9.238;2022-11-20T07:42:52;6.90;99.90
21823;DHT22;11074;48.596;9.238;2022-11-20T07:45:20;6.90;99.90
21823;DHT22;11074;48.596;9.238;2022-11-20T07:47:47;7.00;99.90
21823;DHT22;11074;48.596;9.238;2022-11-20T07:50:14;7.00;99.90
21823;DHT22;11074;48.596;9.238;2022-11-20T07:52:40;7.00;99.90
21823;DHT22;11074;48.596;9.238;2022-11-20T07:55:06;7.00;99.90
21823;DHT22;11074;48.596;9.238;2022-11-20T07:57:33;7.00;99.90
21823;DHT22;11074;48.596;9.238;2022-11-20T07:59:59;7.00;99.90
21823;DHT22;11074;48.596;9.238;2022-11-20T08:02:24;7.10;99.90
21823;DHT22;11074;48.596;9.238;2022-11-20T08:04:50;7.10;99.90
21823;DHT22;11074;48.596;9.238;2022-11-20T08:07:16;7.10;99.90
21823;DHT22;11074;48.596;9.238;2022-11-20T08:09:42;7.10;99.90
21823;DHT22;11074;48.596;9.238;2022-11-20T08:12:08;7.10;99.90
21823;DHT22;11074;48.596;9.238;2022-11-20T08:15:01;7.10;99.90
21823;DHT22;11074;48.596;9.238;2022-11-20T08:17:26;7.20;99.90
21823;DHT22;11074;48.596;9.238;2022-11-20T08:19:52;7.20;99.90
21823;DHT22;11074;48.596;9.238;2022-11-20T08:22:18;7.20;99.90
21823;DHT22;11074;48.596;9.238;2022-11-20T08:24:43;7.20;99.90
21823;DHT22;11074;48.596;9.238;2022-11-20T08:27:09;7.20;99.90
21823;DHT22;11074;48.596;9.238;2022-11-20T08:29:35;7.30;99.90
21823;DHT22;11074;48.596;9.238;2022-11-20T08:32:00;7.30;99.90
21823;DHT22;11074;48.596;9.238;2022-11-20T08:34:26;7.30;99.90
21823;DHT22;11074;48.596;9.238;2022-11-20T08:36:52;7.30;99.90
21823;DHT22;11074;48.596;9.238;2022-11-20T08:39:17;7.30;99.90
21823;DHT22;11074;48.596;9.238;2022-11-20T08:41:43;7.30;99.90
21823;DHT22;11074;48.596;9.238;2022-11-20T08:44:09;7.40;99.90
21823;DHT22;11074;48.596;9.238;2022-11-20T08:46:39;7.40;99.90
21823;DHT22;11074;48.596;9.238;2022-11-20T08:49:08;7.40;99.90
21823;DHT22;11074;48.596;9.238;2022-11-20T08:51:36;7.50;99.90
21823;DHT22;11074;48.596;9.238;2022-11-20T08:54:03;7.50;99.90
21823;DHT22;11074;48.596;9.238;2022-11-20T08:56:29;7.50;99.90
21823;DHT22;11074;48.596;9.238;2022-11-20T08:58:55;7.50;99.90
21823;DHT22;11074;48.596;9.238;2022-11-20T09:01:22;7.50;99.90
21823;DHT22;11074;48.596;9.238;2022-11-20T09:03:48;7.50;99.90
21823;DHT22;11074;48.596;9.238;2022-11-20T09:06:15;7.50;99.90
21823;DHT22;11074;48.596;9.238;2022-11-20T09:08:41;7.50;99.90
21823;DHT22;11074;48.596;9.238;2022-11-20T09:11:07;7.50;99.90
21823;DHT22;11074;48.596;9.238;2022-11-20T09:13:35;7.50;99.90
21823;DHT22;11074;48.596;9.238;2022-11-20T09:16:06;7.60;99.90
21823;DHT22;11074;48.596;9.238;2022-11-20T09:18:35;7.60;99.90
21823;DHT22;11074;48.596;9.238;2022-11-20T09:21:11;7.60;99.90
21823;DHT22;11074;48.596;9.238;2022-11-20T09:23:38;7.60;99.90
21823;DHT22;11074;48.596;9.238;2022-11-20T09:59:46;7.80;99.90
21823;DHT22;11074;48.596;9.238;2022-11-20T10:05:09;7.80;99.90
21823;DHT22;11074;48.596;9.238;2022-11-20T10:07:47;7.90;99.90
21823;DHT22;11074;48.596;9.238;2022-11-20T10:10:36;7.90;99.90
21823;DHT22;11074;48.596;9.238;2022-11-20T10:13:31;7.90;99.90
21823;DHT22;11074;48.596;9.238;2022-11-20T10:19:10;8.00;99.90
21823;DHT22;11074;48.596;9.238;2022-11-20T10:31:04;8.00;99.90
21823;DHT22;11074;48.596;9.238;2022-11-20T10:33:40;8.10;99.90
21823;DHT22;11074;48.596;9.238;2022-11-20T10:36:17;8.10;99.90
21823;DHT22;11074;48.596;9.238;2022-11-20T10:38:51;8.10;99.90
21823;DHT22;11074;48.596;9.238;2022-11-20T10:41:31;8.10;99.90
21823;DHT22;11074;48.596;9.238;2022-11-20T10:46:44;8.00;99.90
21823;DHT22;11074;48.596;9.238;2022-11-20T10:49:18;8.10;99.90
21823;DHT22;11074;48.596;9.238;2022-11-20T11:00:26;8.20;99.90
21823;DHT22;11074;48.596;9.238;2022-11-20T11:02:54;8.20;99.90
21823;DHT22;11074;48.596;9.238;2022-11-20T11:05:44;8.20;99.90
21823;DHT22;11074;48.596;9.238;2022-11-20T11:08:18;8.30;99.90
21823;DHT22;11074;48.596;9.238;2022-11-20T11:11:00;8.30;99.90
21823;DHT22;11074;48.596;9.238;2022-11-20T11:13:32;8.40;99.90
21823;DHT22;11074;48.596;9.238;2022-11-20T11:15:58;8.40;99.90
21823;DHT22;11074;48.596;9.238;2022-11-20T11:18:30;8.30;99.90
21823;DHT22;11074;48.596;9.238;2022-11-20T11:21:00;8.40;99.90
21823;DHT22;11074;48.596;9.238;2022-11-20T11:23:41;8.50;99.90
21823;DHT22;11074;48.596;9.238;2022-11-20T11:26:22;8.60;99.90
21823;DHT22;11074;48.596;9.238;2022-11-20T11:28:58;8.60;99.90
21823;DHT22;11074;48.596;9.238;2022-11-20T11:31:30;8.70;99.90
21823;DHT22;11074;48.596;9.238;2022-11-20T11:34:07;8.70;99.90
21823;DHT22;11074;48.596;9.238;2022-11-20T11:36:37;8.80;99.90
21823;DHT22;11074;48.596;9.238;2022-11-20T11:39:05;8.80;99.90
21823;DHT22;11074;48.596;9.238;2022-11-20T11:41:36;8.80;99.90
21823;DHT22;11074;48.596;9.238;2022-11-20T11:44:15;8.80;99.90
21823;DHT22;11074;48.596;9.238;2022-11-20T11:47:04;8.70;99.90
21823;DHT22;11074;48.596;9.238;2022-11-20T11:49:35;8.70;99.90
21823;DHT22;11074;48.596;9.238;2022-11-20T11:52:14;8.80;99.90
21823;DHT22;11074;48.596;9.238;2022-11-20T11:55:00;9.00;99.90
21823;DHT22;11074;48.596;9.238;2022-11-20T11:58:02;9.00;99.90
21823;DHT22;11074;48.596;9.238;2022-11-20T12:00:35;9.00;99.90
21823;DHT22;11074;48.596;9.238;2022-11-20T12:03:34;8.90;99.90
21823;DHT22;11074;48.596;9.238;2022-11-20T12:06:15;8.80;99.90
21823;DHT22;11074;48.596;9.238;2022-11-20T12:08:59;8.90;99.90
21823;DHT22;11074;48.596;9.238;2022-11-20T12:11:49;9.00;99.90
21823;DHT22;11074;48.596;9.238;2022-11-20T12:14:30;9.20;99.90
21823;DHT22;11074;48.596;9.238;2022-11-20T12:17:02;9.60;99.90
21823;DHT22;11074;48.596;9.238;2022-11-20T12:19:30;9.90;99.90
21823;DHT22;11074;48.596;9.238;2022-11-20T12:25:20;10.10;99.90
21823;DHT22;11074;48.596;9.238;2022-11-20T12:34:09;9.40;99.90
21823;DHT22;11074;48.596;9.238;2022-11-20T12:36:47;9.20;99.90
21823;DHT22;11074;48.596;9.238;2022-11-20T12:39:19;9.20;99.90
21823;DHT22;11074;48.596;9.238;2022-11-20T12:41:58;9.20;99.90
21823;DHT22;11074;48.596;9.238;2022-11-20T12:46:01;9.20;99.90
21823;DHT22;11074;48.596;9.238;2022-11-20T12:48:35;9.10;99.90
21823;DHT22;11074;48.596;9.238;2022-11-20T13:05:46;9.00;99.90
21823;DHT22;11074;48.596;9.238;2022-11-20T13:08:27;9.00;99.90
21823;DHT22;11074;48.596;9.238;2022-11-20T13:11:15;9.10;99.90
21823;DHT22;11074;48.596;9.238;2022-11-20T13:14:08;9.30;99.90
21823;DHT22;11074;48.596;9.238;2022-11-20T13:19:26;10.30;99.90
21823;DHT22;11074;48.596;9.238;2022-11-20T13:21:53;10.30;99.90
21823;DHT22;11074;48.596;9.238;2022-11-20T13:26:46;10.00;99.90
21823;DHT22;11074;48.596;9.238;2022-11-20T13:29:19;9.80;99.90
21823;DHT22;11074;48.596;9.238;2022-11-20T13:31:47;9.70;99.90
21823;DHT22;11074;48.596;9.238;2022-11-20T13:34:27;9.60;99.90
21823;DHT22;11074;48.596;9.238;2022-11-20T13:36:55;9.50;99.90
21823;DHT22;11074;48.596;9.238;2022-11-20T13:39:26;9.50;99.90
21823;DHT22;11074;48.596;9.238;2022-11-20T13:44:48;9.50;99.90
21823;DHT22;11074;48.596;9.238;2022-11-20T13:47:26;9.50;99.90
21823;DHT22;11074;48.596;9.238;2022-11-20T13:49:55;9.40;99.90
21823;DHT22;11074;48.596;9.238;2022-11-20T13:52:39;9.30;99.90
21823;DHT22;11074;48.596;9.238;2022-11-20T13:55:38;9.30;99.90
21823;DHT22;11074;48.596;9.238;2022-11-20T13:58:24;9.30;99.90
21823;DHT22;11074;48.596;9.238;2022-11-20T14:01:17;9.30;99.90
21823;DHT22;11074;48.596;9.238;2022-11-20T14:03:47;10.20;99.90
21823;DHT22;11074;48.596;9.238;2022-11-20T14:06:32;10.90;99.90
21823;DHT22;11074;48.596;9.238;2022-11-20T14:09:03;11.20;99.90
21823;DHT22;11074;48.596;9.238;2022-11-20T14:11:30;10.80;99.90
21823;DHT22;11074;48.596;9.238;2022-11-20T14:14:16;10.50;99.90
21823;DHT22;11074;48.596;9.238;2022-11-20T14:16:44;10.30;99.90
21823;DHT22;11074;48.596;9.238;2022-11-20T14:21:52;9.80;99.90
21823;DHT22;11074;48.596;9.238;2022-11-20T14:24:20;9.60;99.90
21823;DHT22;11074;48.596;9.238;2022-11-20T14:26:48;9.40;99.90
21823;DHT22;11074;48.596;9.238;2022-11-20T14:29:27;9.30;99.90
21823;DHT22;11074;48.596;9.238;2022-11-20T14:31:56;9.20;99.90
21823;DHT22;11074;48.596;9.238;2022-11-20T14:34:31;9.20;99.90
21823;DHT22;11074;48.596;9.238;2022-11-20T14:37:03;9.20;99.90
21823;DHT22;11074;48.596;9.238;2022-11-20T14:39:36;9.20;99.90
21823;DHT22;11074;48.596;9.238;2022-11-20T14:42:26;9.20;99.90
21823;DHT22;11074;48.596;9.238;2022-11-20T14:44:56;9.20;99.90
21823;DHT22;11074;48.596;9.238;2022-11-20T14:47:30;9.10;99.90
21823;DHT22;11074;48.596;9.238;2022-11-20T14:49:57;9.10;99.90
21823;DHT22;11074;48.596;9.238;2022-11-20T14:52:29;9.10;99.90
21823;DHT22;11074;48.596;9.238;2022-11-20T14:54:57;9.10;99.90
21823;DHT22;11074;48.596;9.238;2022-11-20T15:02:52;9.00;99.90
21823;DHT22;11074;48.596;9.238;2022-11-20T15:05:43;8.90;99.90
21823;DHT22;11074;48.596;9.238;2022-11-20T15:08:10;9.00;99.90
21823;DHT22;11074;48.596;9.238;2022-11-20T15:10:37;8.90;99.90
21823;DHT22;11074;48.596;9.238;2022-11-20T15:13:10;8.90;99.90
21823;DHT22;11074;48.596;9.238;2022-11-20T15:15:53;8.80;99.90
21823;DHT22;11074;48.596;9.238;2022-11-20T15:18:26;8.80;99.90
21823;DHT22;11074;48.596;9.238;2022-11-20T15:20:56;8.80;99.90
21823;DHT22;11074;48.596;9.238;2022-11-20T15:25:59;8.70;99.90
21823;DHT22;11074;48.596;9.238;2022-11-20T15:28:37;8.70;99.90
21823;DHT22;11074;48.596;9.238;2022-11-20T15:31:14;8.70;99.90
21823;DHT22;11074;48.596;9.238;2022-11-20T15:33:42;8.60;99.90
21823;DHT22;11074;48.596;9.238;2022-11-20T15:36:08;8.60;99.90
21823;DHT22;11074;48.596;9.238;2022-11-20T15:38:35;8.60;99.90
21823;DHT22;11074;48.596;9.238;2022-11-20T15:41:01;8.60;99.90
21823;DHT22;11074;48.596;9.238;2022-11-20T15:43:27;8.40;99.90
21823;DHT22;11074;48.596;9.238;2022-11-20T15:45:59;8.30;99.90
21823;DHT22;11074;48.596;9.238;2022-11-20T15:48:44;8.30;99.90
21823;DHT22;11074;48.596;9.238;2022-11-20T15:51:33;8.30;99.90
21823;DHT22;11074;48.596;9.238;2022-11-20T15:54:01;8.30;99.90
21823;DHT22;11074;48.596;9.238;2022-11-20T15:56:34;8.30;99.90
21823;DHT22;11074;48.596;9.238;2022-11-20T15:59:00;8.10;99.90
21823;DHT22;11074;48.596;9.238;2022-11-20T16:01:26;8.00;99.90
21823;DHT22;11074;48.596;9.238;2022-11-20T16:03:51;8.00;99.90
21823;DHT22;11074;48.596;9.238;2022-11-20T16:06:17;8.00;99.90
21823;DHT22;11074;48.596;9.238;2022-11-20T16:08:43;8.00;99.90
21823;DHT22;11074;48.596;9.238;2022-11-20T16:11:14;8.00;99.90
21823;DHT22;11074;48.596;9.238;2022-11-20T16:13:42;8.00;99.90
21823;DHT22;11074;48.596;9.238;2022-11-20T16:18:57;8.00;99.90
21823;DHT22;11074;48.596;9.238;2022-11-20T16:21:23;8.00;99.90
21823;DHT22;11074;48.596;9.238;2022-11-20T16:24:03;8.00;99.90
21823;DHT22;11074;48.596;9.238;2022-11-20T16:26:30;8.00;99.90
21823;DHT22;11074;48.596;9.238;2022-11-20T16:28:59;8.00;99.90
21823;DHT22;11074;48.596;9.238;2022-11-20T16:31:25;7.90;99.90
21823;DHT22;11074;48.596;9.238;2022-11-20T16:33:52;7.90;99.90
21823;DHT22;11074;48.596;9.238;2022-11-20T16:36:20;7.80;99.90
21823;DHT22;11074;48.596;9.238;2022-11-20T16:38:53;7.80;99.90
21823;DHT22;11074;48.596;9.238;2022-11-20T16:41:20;7.80;99.90
21823;DHT22;11074;48.596;9.238;2022-11-20T16:43:50;7.80;99.90
21823;DHT22;11074;48.596;9.238;2022-11-20T16:46:21;7.80;99.90
21823;DHT22;11074;48.596;9.238;2022-11-20T16:51:24;7.80;99.90
21823;DHT22;11074;48.596;9.238;2022-11-20T16:53:51;7.80;99.90
21823;DHT22;11074;48.596;9.238;2022-11-20T16:56:19;7.70;99.90
21823;DHT22;11074;48.596;9.238;2022-11-20T16:58:48;7.70;99.90
21823;DHT22;11074;48.596;9.238;2022-11-20T17:01:17;7.70;99.90
21823;DHT22;11074;48.596;9.238;2022-11-20T17:03:47;7.80;99.90
21823;DHT22;11074;48.596;9.238;2022-11-20T17:06:21;7.80;99.90
21823;DHT22;11074;48.596;9.238;2022-11-20T17:08:49;7.80;99.90
21823;DHT22;11074;48.596;9.238;2022-11-20T17:11:17;7.80;99.90
21823;DHT22;11074;48.596;9.238;2022-11-20T17:13:45;7.80;99.90
21823;DHT22;11074;48.596;9.238;2022-11-20T17:16:14;7.80;99.90
21823;DHT22;11074;48.596;9.238;2022-11-20T17:18:42;7.80;99.90
21823;DHT22;11074;48.596;9.238;2022-11-20T17:21:09;7.80;99.90
21823;DHT22;11074;48.596;9.238;2022-11-20T17:23:38;7.80;99.90
21823;DHT22;11074;48.596;9.238;2022-11-20T17:26:09;7.90;99.90
21823;DHT22;11074;48.596;9.238;2022-11-20T17:28:55;7.90;99.90
21823;DHT22;11074;48.596;9.238;2022-11-20T17:31:25;7.90;99.90
21823;DHT22;11074;48.596;9.238;2022-11-20T17:33:52;7.90;99.90
21823;DHT22;11074;48.596;9.238;2022-11-20T17:36:18;7.90;99.90
21823;DHT22;11074;48.596;9.238;2022-11-20T17:38:45;7.90;99.90
21823;DHT22;11074;48.596;9.238;2022-11-20T17:41:13;7.90;99.90
21823;DHT22;11074;48.596;9.238;2022-11-20T17:43:41;7.90;99.90
21823;DHT22;11074;48.596;9.238;2022-11-20T17:46:11;7.90;99.90
21823;DHT22;11074;48.596;9.238;2022-11-20T17:48:45;7.90;99.90
21823;DHT22;11074;48.596;9.238;2022-11-20T17:53:42;7.90;99.90
21823;DHT22;11074;48.596;9.238;2022-11-20T17:56:09;7.90;99.90
21823;DHT22;11074;48.596;9.238;2022-11-20T17:58:54;7.90;99.90
21823;DHT22;11074;48.596;9.238;2022-11-20T18:01:20;7.90;99.90